createdAt,value
2022-11-26T00:00:31.707Z,28.30
2022-11-26T00:03:00.336Z,28.42
2022-11-26T00:05:32.197Z,54.17
2022-11-26T00:08:04.501Z,47.67
2022-11-26T00:10:36.427Z,47.40
2022-11-26T00:13:04.879Z,48.05
2022-11-26T00:15:33.718Z,44.95
2022-11-26T00:18:02.166Z,34.53
2022-11-26T00:20:32.162Z,50.72
2022-11-26T00:23:04.361Z,46.20
2022-11-26T00:25:34.805Z,43.10
2022-11-26T00:28:03.469Z,39.22
2022-11-26T00:30:32.008Z,29.13
2022-11-26T00:33:00.516Z,23.58
2022-11-26T00:35:29.033Z,20.63
2022-11-26T00:37:58.422Z,20.65
2022-11-26T00:40:29.771Z,22.90
2022-11-26T00:43:01.870Z,22.13
2022-11-26T00:45:31.785Z,21.42
2022-11-26T00:48:01.774Z,22.23
2022-11-26T00:50:33.853Z,17.52
2022-11-26T00:53:02.321Z,16.85
2022-11-26T00:55:34.162Z,17.27
2022-11-26T00:58:02.953Z,17.73
2022-11-26T01:00:33.145Z,18.60
2022-11-26T01:03:01.983Z,20.77
2022-11-26T01:05:33.693Z,20.70
2022-11-26T01:08:03.854Z,19.52
2022-11-26T01:10:33.719Z,19.25
2022-11-26T01:13:02.248Z,19.90
2022-11-26T01:15:30.962Z,22.95
2022-11-26T01:17:59.670Z,23.23
2022-11-26T01:20:29.043Z,23.55
2022-11-26T01:22:58.888Z,17.75
2022-11-26T01:25:28.519Z,19.60
2022-11-26T01:27:58.379Z,16.15
2022-11-26T01:30:27.488Z,16.55
2022-11-26T01:32:55.953Z,17.38
2022-11-26T01:35:24.949Z,18.90
2022-11-26T01:37:53.434Z,17.67
2022-11-26T01:40:36.704Z,19.08
2022-11-26T01:43:09.265Z,20.55
2022-11-26T01:45:37.857Z,19.50
2022-11-26T01:48:14.599Z,16.10
2022-11-26T01:51:00.812Z,14.38
2022-11-26T01:53:32.403Z,13.60
2022-11-26T01:56:02.275Z,12.30
2022-11-26T01:58:39.626Z,15.80
2022-11-26T02:01:08.734Z,17.48
2022-11-26T02:03:42.890Z,18.65
2022-11-26T02:06:13.743Z,18.00
2022-11-26T02:08:42.871Z,16.20
2022-11-26T02:11:16.183Z,13.88
2022-11-26T02:13:46.365Z,13.65
2022-11-26T02:16:19.211Z,13.20
2022-11-26T02:18:54.532Z,14.23
2022-11-26T02:21:28.241Z,15.00
2022-11-26T02:24:17.388Z,13.52
2022-11-26T02:27:06.630Z,13.10
2022-11-26T02:29:50.556Z,14.63
2022-11-26T02:32:22.016Z,15.05
2022-11-26T02:34:52.986Z,14.07
2022-11-26T02:37:24.171Z,16.75
2022-11-26T02:39:53.048Z,14.95
2022-11-26T02:42:25.153Z,15.75
2022-11-26T02:44:56.018Z,15.40
2022-11-26T02:47:26.003Z,17.23
2022-11-26T02:49:58.154Z,15.85
2022-11-26T02:52:27.333Z,20.50
2022-11-26T02:54:57.444Z,19.83
2022-11-26T02:57:28.283Z,19.13
2022-11-26T02:59:58.460Z,17.40
2022-11-26T03:02:28.352Z,20.50
2022-11-26T03:04:58.907Z,18.35
2022-11-26T03:07:27.634Z,16.33
2022-11-26T03:09:57.743Z,18.13
2022-11-26T03:12:26.876Z,17.35
2022-11-26T03:14:55.671Z,15.13
2022-11-26T03:17:25.698Z,15.20
2022-11-26T03:19:54.539Z,13.90
2022-11-26T03:22:23.225Z,16.15
2022-11-26T03:24:51.729Z,18.25
2022-11-26T03:27:20.270Z,16.05
2022-11-26T03:29:48.832Z,15.07
2022-11-26T03:32:19.442Z,18.38
2022-11-26T03:34:49.605Z,17.65
2022-11-26T03:37:18.123Z,16.52
2022-11-26T03:39:46.596Z,18.25
2022-11-26T03:42:15.057Z,18.35
2022-11-26T03:44:43.594Z,17.80
2022-11-26T03:47:12.092Z,15.43
2022-11-26T03:49:40.611Z,17.98
2022-11-26T03:52:10.479Z,17.73
2022-11-26T03:54:39.159Z,18.10
2022-11-26T03:57:07.798Z,17.20
2022-11-26T03:59:36.323Z,19.27
2022-11-26T04:02:04.947Z,15.52
2022-11-26T04:04:36.016Z,17.75
2022-11-26T04:07:04.818Z,14.90
2022-11-26T04:09:34.776Z,16.65
2022-11-26T04:12:03.353Z,16.50
2022-11-26T04:14:32.001Z,14.32
2022-11-26T04:17:00.562Z,15.75
2022-11-26T04:19:29.181Z,19.23
2022-11-26T04:21:57.785Z,15.70
2022-11-26T04:24:26.320Z,17.63
2022-11-26T04:26:56.175Z,14.00
2022-11-26T04:29:24.787Z,17.75
2022-11-26T04:31:53.304Z,20.23
2022-11-26T04:34:21.891Z,13.27
2022-11-26T04:36:50.355Z,16.80
2022-11-26T04:39:18.831Z,18.33
2022-11-26T04:41:47.382Z,13.88
2022-11-26T04:44:17.240Z,15.10
2022-11-26T04:46:45.702Z,17.80
2022-11-26T04:49:14.180Z,14.55
2022-11-26T04:51:43.109Z,14.00
2022-11-26T04:54:13.184Z,14.60
2022-11-26T04:56:41.949Z,13.57
2022-11-26T04:59:10.397Z,13.90
2022-11-26T05:01:40.312Z,16.13
2022-11-26T05:04:09.078Z,14.32
2022-11-26T05:06:37.607Z,14.88
2022-11-26T05:09:06.131Z,13.50
2022-11-26T05:11:34.624Z,15.23
2022-11-26T05:14:03.074Z,14.63
2022-11-26T05:16:31.852Z,16.48
2022-11-26T05:19:01.805Z,14.73
2022-11-26T05:21:30.313Z,14.48
2022-11-26T05:23:58.817Z,13.32
2022-11-26T05:26:27.552Z,13.63
2022-11-26T05:28:56.073Z,15.63
2022-11-26T05:31:24.664Z,12.70
2022-11-26T05:33:53.154Z,10.65
2022-11-26T05:36:23.019Z,11.95
2022-11-26T05:38:51.504Z,15.20
2022-11-26T05:41:20.057Z,14.32
2022-11-26T05:43:48.527Z,15.10
2022-11-26T05:46:17.758Z,11.07
2022-11-26T05:48:46.512Z,13.68
2022-11-26T05:51:15.529Z,11.63
2022-11-26T05:53:45.353Z,13.60
2022-11-26T05:56:13.820Z,10.85
2022-11-26T05:58:44.217Z,10.38
2022-11-26T06:01:12.931Z,10.57
2022-11-26T06:03:41.483Z,10.88
2022-11-26T06:06:10.411Z,9.98
2022-11-26T06:08:39.136Z,13.07
2022-11-26T06:11:09.102Z,10.68
2022-11-26T06:13:37.639Z,17.38
2022-11-26T06:16:06.331Z,8.25
2022-11-26T06:18:34.856Z,12.50
2022-11-26T06:21:03.588Z,16.77
2022-11-26T06:23:33.209Z,10.98
2022-11-26T06:26:02.164Z,12.38
2022-11-26T06:28:32.088Z,14.13
2022-11-26T06:31:00.614Z,11.05
2022-11-26T06:33:29.115Z,12.30
2022-11-26T06:36:00.463Z,11.35
2022-11-26T06:38:29.102Z,11.80
2022-11-26T06:41:01.177Z,14.18
2022-11-26T06:43:29.930Z,10.73
2022-11-26T06:46:02.910Z,13.10
2022-11-26T06:48:31.906Z,18.13
2022-11-26T06:51:04.897Z,41.72
2022-11-26T06:53:33.474Z,11.85
2022-11-26T06:56:02.283Z,16.35
2022-11-26T06:58:30.935Z,12.80
2022-11-26T07:01:00.989Z,8.55
2022-11-26T07:03:33.381Z,12.30
2022-11-26T07:06:02.108Z,12.00
2022-11-26T07:08:30.624Z,13.02
2022-11-26T07:11:02.903Z,11.20
2022-11-26T07:13:31.403Z,13.93
2022-11-26T07:16:04.951Z,10.95
2022-11-26T07:18:33.626Z,10.77
2022-11-26T07:21:06.000Z,10.45
2022-11-26T07:23:34.493Z,14.27
2022-11-26T07:26:02.973Z,10.07
2022-11-26T07:28:31.611Z,9.60
2022-11-26T07:31:02.592Z,12.85
2022-11-26T07:33:32.558Z,13.93
2022-11-26T07:36:01.619Z,14.23
2022-11-26T07:38:30.410Z,10.55
2022-11-26T07:41:04.523Z,35.63
2022-11-26T07:43:33.050Z,52.58
2022-11-26T07:46:03.370Z,17.02
2022-11-26T07:48:33.780Z,20.48
2022-11-26T07:51:03.105Z,19.25
2022-11-26T07:53:32.169Z,39.58
2022-11-26T07:56:00.756Z,49.85
2022-11-26T07:58:29.255Z,34.58
2022-11-26T08:00:57.788Z,37.25
2022-11-26T08:03:26.306Z,31.85
2022-11-26T08:05:56.318Z,25.27
2022-11-26T08:08:24.751Z,20.48
2022-11-26T08:10:56.004Z,14.30
2022-11-26T08:13:24.533Z,21.42
2022-11-26T08:15:53.065Z,16.35
2022-11-26T08:18:21.783Z,17.77
2022-11-26T08:21:03.531Z,18.85
2022-11-26T08:23:35.290Z,29.48
2022-11-26T08:26:22.632Z,16.13
2022-11-26T08:28:54.378Z,20.00
2022-11-26T08:31:24.970Z,17.70
2022-11-26T08:33:53.568Z,16.20
2022-11-26T08:36:23.453Z,15.70
2022-11-26T08:38:52.016Z,16.48
2022-11-26T08:41:20.518Z,18.92
2022-11-26T08:44:06.170Z,26.30
2022-11-26T08:46:35.898Z,23.75
2022-11-26T08:49:04.489Z,22.67
2022-11-26T08:51:41.446Z,22.10
2022-11-26T08:54:10.007Z,20.00
2022-11-26T08:56:38.815Z,20.10
2022-11-26T08:59:07.488Z,19.83
2022-11-26T09:01:36.468Z,20.10
2022-11-26T09:04:05.825Z,22.27
2022-11-26T09:06:41.109Z,19.40
2022-11-26T09:09:18.102Z,21.02
2022-11-26T09:11:52.793Z,20.27
2022-11-26T09:14:28.280Z,18.63
2022-11-26T09:17:04.781Z,20.67
2022-11-26T09:19:35.520Z,19.75
2022-11-26T09:22:11.850Z,22.52
2022-11-26T09:24:45.235Z,27.60
2022-11-26T09:27:19.816Z,29.58
2022-11-26T09:29:53.323Z,26.38
2022-11-26T09:32:27.119Z,23.73
2022-11-26T09:35:01.531Z,31.52
2022-11-26T09:37:48.667Z,26.90
2022-11-26T09:40:24.185Z,25.23
2022-11-26T09:42:57.570Z,22.43
2022-11-26T09:45:45.096Z,20.80
2022-11-26T09:48:29.100Z,21.10
2022-11-26T09:51:25.159Z,22.77
2022-11-26T09:54:32.399Z,20.95
2022-11-26T09:57:22.944Z,25.23
2022-11-26T10:00:08.569Z,23.13
2022-11-26T10:09:17.611Z,21.50
2022-11-26T10:16:06.382Z,21.30
2022-11-26T10:39:00.536Z,22.50
2022-11-26T11:29:21.205Z,23.80
2022-11-26T11:32:05.473Z,25.92
2022-11-26T11:41:49.623Z,25.33
2022-11-26T11:45:04.963Z,23.38
2022-11-26T11:47:38.900Z,29.33
2022-11-26T11:50:16.660Z,28.75
2022-11-26T11:52:50.401Z,22.33
2022-11-26T11:55:24.947Z,20.65
2022-11-26T11:58:06.187Z,24.00
2022-11-26T12:00:40.464Z,19.05
2022-11-26T12:03:37.497Z,30.65
2022-11-26T12:06:19.435Z,78.30
2022-11-26T12:08:54.552Z,25.17
2022-11-26T12:11:32.905Z,21.63
2022-11-26T12:14:03.570Z,22.02
2022-11-26T12:16:35.076Z,18.23
2022-11-26T12:19:07.212Z,20.98
2022-11-26T12:21:41.165Z,15.50
2022-11-26T12:24:13.627Z,16.08
2022-11-26T12:26:45.192Z,14.23
2022-11-26T12:29:16.708Z,15.82
2022-11-26T12:31:50.173Z,15.25
2022-11-26T12:34:33.770Z,15.57
2022-11-26T12:37:04.323Z,19.40
2022-11-26T12:39:39.985Z,14.00
2022-11-26T12:42:13.302Z,15.35
2022-11-26T12:44:42.934Z,21.33
2022-11-26T12:47:16.668Z,12.75
2022-11-26T12:50:05.202Z,18.00
2022-11-26T12:52:53.066Z,17.08
2022-11-26T12:55:23.923Z,19.02
2022-11-26T12:57:57.640Z,16.08
2022-11-26T13:00:35.511Z,17.60
2022-11-26T13:03:33.202Z,16.67
2022-11-26T13:09:43.674Z,12.38
2022-11-26T13:12:17.030Z,14.52
2022-11-26T13:14:47.391Z,14.18
2022-11-26T13:17:16.889Z,14.30
2022-11-26T13:19:49.917Z,15.45
2022-11-26T13:22:45.796Z,16.33
2022-11-26T13:25:41.876Z,15.10
2022-11-26T13:28:18.622Z,14.45
2022-11-26T13:30:53.165Z,14.80
2022-11-26T13:33:36.836Z,13.20
2022-11-26T13:36:15.788Z,14.27
2022-11-26T13:38:48.693Z,13.45
2022-11-26T13:41:25.758Z,11.93
2022-11-26T13:44:09.807Z,13.25
2022-11-26T13:49:09.649Z,14.02
2022-11-26T13:51:39.995Z,13.77
2022-11-26T13:54:10.715Z,15.27
2022-11-26T13:56:40.432Z,15.80
2022-11-26T13:59:18.155Z,18.10
2022-11-26T14:01:47.650Z,14.98
2022-11-26T14:04:17.345Z,18.13
2022-11-26T14:07:03.785Z,13.32
2022-11-26T14:09:49.430Z,15.93
2022-11-26T14:12:18.886Z,16.15
2022-11-26T14:14:49.202Z,17.90
2022-11-26T14:17:21.759Z,17.92
2022-11-26T14:20:03.425Z,17.13
2022-11-26T14:22:33.469Z,14.23
2022-11-26T14:25:06.471Z,15.90
2022-11-26T14:27:36.053Z,12.73
2022-11-26T14:30:16.730Z,16.40
2022-11-26T14:32:48.393Z,12.10
2022-11-26T14:35:20.543Z,11.63
2022-11-26T14:37:52.988Z,13.98
2022-11-26T14:40:23.792Z,10.93
2022-11-26T14:43:07.340Z,12.32
2022-11-26T14:45:38.611Z,11.00
2022-11-26T14:48:07.894Z,10.93
2022-11-26T14:50:38.360Z,12.93
2022-11-26T14:53:09.467Z,11.10
2022-11-26T14:55:38.476Z,13.48
2022-11-26T14:58:09.962Z,10.95
2022-11-26T15:00:40.363Z,12.35
2022-11-26T15:03:21.198Z,13.40
2022-11-26T15:05:49.788Z,14.63
2022-11-26T15:08:20.387Z,15.55
2022-11-26T15:10:51.937Z,15.65
2022-11-26T15:13:24.895Z,15.68
2022-11-26T15:15:55.425Z,14.13
2022-11-26T15:18:28.695Z,13.98
2022-11-26T15:20:57.728Z,12.48
2022-11-26T15:23:29.343Z,14.07
2022-11-26T15:25:59.719Z,14.07
2022-11-26T15:28:28.435Z,16.42
2022-11-26T15:30:59.946Z,21.38
2022-11-26T15:33:29.679Z,22.42
2022-11-26T15:35:58.674Z,19.83
2022-11-26T15:38:28.671Z,18.70
2022-11-26T15:40:58.391Z,21.02
2022-11-26T15:43:30.113Z,19.27
2022-11-26T15:46:01.229Z,20.33
2022-11-26T15:48:50.892Z,22.55
2022-11-26T15:51:24.164Z,19.83
2022-11-26T15:53:53.133Z,26.38
2022-11-26T15:56:22.561Z,25.40
2022-11-26T15:58:52.143Z,22.42
2022-11-26T16:01:23.768Z,19.55
2022-11-26T16:03:53.407Z,18.23
2022-11-26T16:06:32.763Z,20.45
2022-11-26T16:09:06.629Z,25.98
2022-11-26T16:14:25.724Z,24.35
2022-11-26T16:16:55.985Z,24.05
2022-11-26T16:19:28.111Z,17.67
2022-11-26T16:21:57.288Z,14.13
2022-11-26T16:24:32.364Z,16.98
2022-11-26T16:27:02.015Z,14.10
2022-11-26T16:29:31.109Z,12.73
2022-11-26T16:32:01.312Z,15.93
2022-11-26T16:34:30.203Z,18.27
2022-11-26T16:37:03.510Z,14.38
2022-11-26T16:39:37.647Z,14.88
2022-11-26T16:42:11.855Z,15.98
2022-11-26T16:44:40.773Z,17.75
2022-11-26T16:47:14.688Z,18.20
2022-11-26T16:52:14.031Z,17.45
2022-11-26T16:54:42.607Z,22.10
2022-11-26T16:57:13.622Z,20.92
2022-11-26T16:59:42.704Z,19.48
2022-11-26T17:02:18.394Z,17.27
2022-11-26T17:04:46.961Z,17.40
2022-11-26T17:07:16.162Z,18.52
2022-11-26T17:09:45.266Z,18.13
2022-11-26T17:12:17.233Z,16.38
2022-11-26T17:14:45.939Z,21.27
2022-11-26T17:17:19.067Z,18.77
2022-11-26T17:19:52.762Z,21.90
2022-11-26T17:22:21.630Z,20.80
2022-11-26T17:24:50.380Z,20.08
2022-11-26T17:27:20.628Z,17.20
2022-11-26T17:29:50.334Z,21.10
2022-11-26T17:32:20.581Z,21.30
2022-11-26T17:34:49.392Z,21.75
2022-11-26T17:37:22.205Z,19.65
2022-11-26T17:39:50.739Z,17.08
2022-11-26T17:42:20.163Z,23.70
2022-11-26T17:44:49.143Z,25.70
2022-11-26T17:47:18.613Z,28.15
2022-11-26T17:49:47.342Z,29.35
2022-11-26T17:52:16.383Z,34.47
2022-11-26T17:54:46.927Z,27.02
2022-11-26T17:57:17.416Z,23.85
2022-11-26T17:59:47.473Z,30.13
2022-11-26T18:02:15.996Z,25.73
2022-11-26T18:04:44.451Z,27.45
2022-11-26T18:07:14.626Z,27.83
2022-11-26T18:09:43.718Z,22.77
2022-11-26T18:12:24.389Z,26.70
2022-11-26T18:14:54.372Z,29.17
2022-11-26T18:17:24.536Z,29.95
2022-11-26T18:19:53.154Z,28.10
2022-11-26T18:22:23.622Z,26.17
2022-11-26T18:24:56.958Z,27.75
2022-11-26T18:29:55.844Z,21.13
2022-11-26T18:32:24.251Z,22.50
2022-11-26T18:34:53.187Z,21.38
2022-11-26T18:37:22.073Z,20.77
2022-11-26T18:39:50.535Z,19.05
2022-11-26T18:42:36.550Z,20.17
2022-11-26T18:45:08.005Z,18.35
2022-11-26T18:47:36.487Z,17.70
2022-11-26T18:50:05.164Z,17.90
2022-11-26T18:52:33.810Z,16.80
2022-11-26T18:55:04.924Z,14.75
2022-11-26T18:57:33.529Z,17.70
2022-11-26T19:00:02.304Z,16.60
2022-11-26T19:02:32.735Z,18.00
2022-11-26T19:05:01.438Z,21.10
2022-11-26T19:07:30.096Z,19.90
2022-11-26T19:09:59.910Z,19.25
2022-11-26T19:12:28.525Z,18.40
2022-11-26T19:14:56.992Z,20.30
2022-11-26T19:17:51.243Z,19.83
2022-11-26T19:20:23.065Z,19.58
2022-11-26T19:22:51.931Z,24.33
2022-11-26T19:25:23.076Z,20.80
2022-11-26T19:27:58.106Z,23.15
2022-11-26T19:30:29.621Z,18.13
2022-11-26T19:33:00.323Z,22.58
2022-11-26T19:35:30.365Z,24.83
2022-11-26T19:38:02.213Z,17.92
2022-11-26T19:40:30.774Z,16.15
2022-11-26T19:42:59.301Z,16.50
2022-11-26T19:45:27.776Z,12.10
2022-11-26T19:47:56.340Z,14.02
2022-11-26T19:50:26.692Z,14.13
2022-11-26T19:52:59.571Z,12.85
2022-11-26T19:55:28.404Z,12.63
2022-11-26T19:57:56.944Z,12.07
2022-11-26T20:00:25.694Z,13.95
2022-11-26T20:03:08.172Z,13.10
2022-11-26T20:05:36.821Z,15.88
2022-11-26T20:08:12.601Z,16.88
2022-11-26T20:10:48.394Z,19.15
2022-11-26T20:13:20.847Z,28.58
2022-11-26T20:15:55.374Z,17.58
2022-11-26T20:18:27.421Z,17.10
2022-11-26T20:21:00.051Z,17.75
2022-11-26T20:23:33.015Z,17.35
2022-11-26T20:26:03.632Z,16.98
2022-11-26T20:28:33.985Z,18.85
2022-11-26T20:31:06.156Z,17.63
2022-11-26T20:33:34.759Z,25.08
2022-11-26T20:36:06.453Z,24.17
2022-11-26T20:38:36.662Z,23.75
2022-11-26T20:41:09.806Z,21.08
2022-11-26T20:43:40.729Z,21.02
2022-11-26T20:46:10.138Z,19.98
2022-11-26T20:48:42.132Z,22.50
2022-11-26T20:51:11.534Z,19.60
2022-11-26T20:53:42.588Z,17.33
2022-11-26T20:56:15.648Z,21.10
2022-11-26T20:58:44.430Z,18.80
2022-11-26T21:01:17.434Z,19.08
2022-11-26T21:03:47.042Z,20.08
2022-11-26T21:06:16.436Z,18.27
2022-11-26T21:08:46.906Z,22.85
2022-11-26T21:11:18.748Z,18.92
2022-11-26T21:13:47.424Z,14.85
2022-11-26T21:16:17.337Z,15.35
2022-11-26T21:18:46.161Z,21.40
2022-11-26T21:21:15.547Z,18.40
2022-11-26T21:23:45.479Z,20.75
2022-11-26T21:26:18.511Z,25.15
2022-11-26T21:28:53.600Z,31.65
2022-11-26T21:31:22.730Z,20.42
2022-11-26T21:33:56.344Z,16.23
2022-11-26T21:36:25.537Z,17.02
2022-11-26T21:38:54.194Z,29.00
2022-11-26T21:41:27.460Z,35.05
2022-11-26T21:43:56.207Z,41.15
2022-11-26T21:46:25.510Z,32.95
2022-11-26T21:48:54.079Z,34.28
2022-11-26T21:51:24.871Z,34.70
2022-11-26T21:53:54.838Z,50.83
2022-11-26T21:56:25.893Z,68.25
2022-11-26T21:58:54.487Z,27.02
2022-11-26T22:01:24.221Z,27.10
2022-11-26T22:03:55.143Z,36.58
2022-11-26T22:06:24.341Z,31.90
2022-11-26T22:08:53.726Z,32.28
2022-11-26T22:11:23.322Z,32.38
2022-11-26T22:13:53.620Z,40.50
2022-11-26T22:16:23.093Z,38.22
2022-11-26T22:18:52.022Z,39.20
2022-11-26T22:21:23.379Z,36.67
2022-11-26T22:23:51.996Z,40.95
2022-11-26T22:26:20.753Z,38.70
2022-11-26T22:28:55.881Z,37.03
2022-11-26T22:31:25.517Z,31.15
2022-11-26T22:33:56.552Z,23.23
2022-11-26T22:36:28.070Z,29.13
2022-11-26T22:38:56.671Z,27.33
2022-11-26T22:41:26.566Z,22.42
2022-11-26T22:43:56.575Z,25.42
2022-11-26T22:46:25.820Z,24.65
2022-11-26T22:48:55.431Z,24.23
2022-11-26T22:51:24.807Z,26.48
2022-11-26T22:53:53.856Z,22.60
2022-11-26T22:56:22.757Z,17.50
2022-11-26T22:58:51.690Z,21.70
2022-11-26T23:01:22.880Z,18.60
2022-11-26T23:03:53.220Z,17.30
2022-11-26T23:06:23.354Z,18.17
2022-11-26T23:08:53.281Z,15.95
2022-11-26T23:11:22.730Z,18.23
2022-11-26T23:13:51.748Z,19.55
2022-11-26T23:16:22.707Z,21.95
2022-11-26T23:18:51.562Z,21.10
2022-11-26T23:21:21.255Z,20.92
2022-11-26T23:23:51.467Z,20.70
2022-11-26T23:26:26.447Z,21.10
2022-11-26T23:28:56.034Z,22.63
2022-11-26T23:31:28.516Z,26.02
2022-11-26T23:33:57.154Z,24.02
2022-11-26T23:36:26.173Z,27.33
2022-11-26T23:38:54.734Z,27.60
2022-11-26T23:41:23.794Z,27.73
2022-11-26T23:43:52.323Z,26.45
2022-11-26T23:46:21.961Z,22.58
2022-11-26T23:48:52.037Z,26.55
2022-11-26T23:51:21.344Z,22.02
2022-11-26T23:53:50.543Z,27.80
2022-11-26T23:56:20.068Z,28.85
2022-11-26T23:58:50.504Z,26.65
